VYMD/MDL METAR and TAF weather

Enter ICAO airport designator
Station Type Date Time Source
VYMD METAR 2020/03/29 13:30 UTC NOAA

VYMD 291330Z 14001KT 6000 NSC 31/19 Q1003 NOSIG


Station Type Date Time Source
VYMD Decoded METAR 2020/03/29 13:30 UTC NOAA

Station name not available
Mar 29, 2020 - 09:30 AM EDT / 2020.03.29 1330 UTC
Wind: from the SE (140 degrees) at 1 MPH (1 KT):0
Visibility: 3 mile(s):0
Temperature: 87 F (31 C)
Dew Point: 66 F (19 C)
Relative Humidity: 48%
Pressure (altimeter): 29.62 in. Hg (1003 hPa)
ob: VYMD 291330Z 14001KT 6000 NSC 31/19 Q1003 NOSIG
cycle: 13

Station Type Date Time Source
VYMD TAF 2020/03/29 18:00 UTC NOAA

TAF VYMD 291700Z 2918/3018 18008KT 6000 FEW025
TEMPO 2918/2924 24005KT 5000 FEW020

Example: see airport list